Cincinnati, Ohio
Traffic Map
Current Weather Conditions
Cincinnati, Ohio
Clear
Clear
41°
Feels Like: 38°
Wind Chill: 38° Ceiling: Unl
Heat Index: 41° Visibility: 10mi
Dew Point: 38° Wind: 5mph
Humidity: 89% Direction: 230° (SW)
Pressure: 30.22in Gusts: 0mph
Raw Report DataKLUK 171053Z 23004KT 10SM CLR 05/03 A3022 RMK AO2 SLP236 T00500033
Traffic Incident Summary
Active as of:
Severity:
Category:
InformationThere was an issue retrieving the traffic information for this location. Please try a different location or try again shortly.
Advertisements